sensor_id;sensor_type;location;lat;lon;timestamp;P1;durP1;ratioP1;P2;durP2;ratioP2
64426;SDS011;50772;51.482;-0.580;2023-10-13T11:00:32;5.35;;;2.30;;
64426;SDS011;50772;51.482;-0.580;2023-10-13T11:03:11;4.97;;;2.47;;
64426;SDS011;50772;51.482;-0.580;2023-10-13T11:05:42;6.22;;;2.40;;
64426;SDS011;50772;51.482;-0.580;2023-10-13T11:08:08;4.15;;;2.60;;
64426;SDS011;50772;51.482;-0.580;2023-10-13T11:10:49;4.38;;;2.45;;
64426;SDS011;50772;51.482;-0.580;2023-10-13T11:13:15;4.60;;;2.50;;
64426;SDS011;50772;51.482;-0.580;2023-10-13T11:15:46;5.55;;;2.65;;
64426;SDS011;50772;51.482;-0.580;2023-10-13T11:18:12;5.85;;;2.90;;
64426;SDS011;50772;51.482;-0.580;2023-10-13T11:20:41;6.50;;;2.63;;
64426;SDS011;50772;51.482;-0.580;2023-10-13T11:23:10;5.25;;;2.67;;
64426;SDS011;50772;51.482;-0.580;2023-10-13T11:25:41;5.13;;;2.47;;
64426;SDS011;50772;51.482;-0.580;2023-10-13T11:28:16;10.57;;;2.83;;
64426;SDS011;50772;51.482;-0.580;2023-10-13T11:30:45;5.82;;;3.00;;
64426;SDS011;50772;51.482;-0.580;2023-10-13T11:33:15;4.38;;;2.55;;
64426;SDS011;50772;51.482;-0.580;2023-10-13T11:35:46;5.37;;;2.83;;
64426;SDS011;50772;51.482;-0.580;2023-10-13T11:38:18;6.05;;;2.85;;
64426;SDS011;50772;51.482;-0.580;2023-10-13T11:41:04;8.00;;;3.20;;
64426;SDS011;50772;51.482;-0.580;2023-10-13T11:46:23;6.07;;;2.75;;
64426;SDS011;50772;51.482;-0.580;2023-10-13T11:49:02;7.93;;;2.90;;
64426;SDS011;50772;51.482;-0.580;2023-10-13T11:51:56;8.02;;;2.80;;
64426;SDS011;50772;51.482;-0.580;2023-10-13T11:54:34;6.05;;;2.60;;
64426;SDS011;50772;51.482;-0.580;2023-10-13T11:57:01;8.88;;;3.10;;
64426;SDS011;50772;51.482;-0.580;2023-10-13T12:02:27;6.05;;;2.63;;
64426;SDS011;50772;51.482;-0.580;2023-10-13T12:05:11;7.80;;;2.75;;
64426;SDS011;50772;51.482;-0.580;2023-10-13T12:07:37;8.45;;;3.35;;
64426;SDS011;50772;51.482;-0.580;2023-10-13T12:10:10;7.60;;;2.60;;
64426;SDS011;50772;51.482;-0.580;2023-10-13T12:12:58;9.10;;;2.78;;
64426;SDS011;50772;51.482;-0.580;2023-10-13T12:15:30;7.32;;;4.05;;
64426;SDS011;50772;51.482;-0.580;2023-10-13T12:18:02;7.63;;;3.03;;
64426;SDS011;50772;51.482;-0.580;2023-10-13T12:20:28;5.55;;;2.42;;
64426;SDS011;50772;51.482;-0.580;2023-10-13T12:23:00;11.70;;;2.80;;
64426;SDS011;50772;51.482;-0.580;2023-10-13T12:25:40;8.85;;;2.78;;
64426;SDS011;50772;51.482;-0.580;2023-10-13T12:28:24;9.88;;;2.70;;
64426;SDS011;50772;51.482;-0.580;2023-10-13T12:30:55;7.75;;;2.58;;
64426;SDS011;50772;51.482;-0.580;2023-10-13T12:33:28;7.30;;;3.20;;
64426;SDS011;50772;51.482;-0.580;2023-10-13T12:38:39;9.65;;;2.42;;
64426;SDS011;50772;51.482;-0.580;2023-10-13T12:41:07;4.38;;;1.95;;
64426;SDS011;50772;51.482;-0.580;2023-10-13T12:43:51;7.95;;;2.25;;
64426;SDS011;50772;51.482;-0.580;2023-10-13T12:46:35;6.25;;;2.13;;
64426;SDS011;50772;51.482;-0.580;2023-10-13T12:49:36;5.05;;;1.98;;
64426;SDS011;50772;51.482;-0.580;2023-10-13T12:52:04;4.07;;;2.15;;
64426;SDS011;50772;51.482;-0.580;2023-10-13T12:54:30;6.82;;;1.98;;
64426;SDS011;50772;51.482;-0.580;2023-10-13T12:57:04;3.65;;;2.70;;
64426;SDS011;50772;51.482;-0.580;2023-10-13T12:59:34;5.25;;;1.98;;
64426;SDS011;50772;51.482;-0.580;2023-10-13T13:01:59;5.22;;;1.85;;
64426;SDS011;50772;51.482;-0.580;2023-10-13T13:04:24;6.75;;;1.90;;
64426;SDS011;50772;51.482;-0.580;2023-10-13T13:06:56;3.90;;;1.58;;
64426;SDS011;50772;51.482;-0.580;2023-10-13T13:09:22;3.27;;;1.70;;
64426;SDS011;50772;51.482;-0.580;2023-10-13T13:11:53;3.88;;;1.60;;
64426;SDS011;50772;51.482;-0.580;2023-10-13T13:14:22;2.70;;;1.50;;
64426;SDS011;50772;51.482;-0.580;2023-10-13T13:16:47;3.47;;;1.48;;
64426;SDS011;50772;51.482;-0.580;2023-10-13T13:19:15;3.58;;;1.50;;
64426;SDS011;50772;51.482;-0.580;2023-10-13T13:21:49;4.30;;;1.73;;
64426;SDS011;50772;51.482;-0.580;2023-10-13T13:24:14;6.10;;;2.00;;
64426;SDS011;50772;51.482;-0.580;2023-10-13T13:26:49;5.55;;;1.58;;
64426;SDS011;50772;51.482;-0.580;2023-10-13T13:29:19;5.28;;;2.15;;
64426;SDS011;50772;51.482;-0.580;2023-10-13T13:31:45;2.72;;;1.52;;
64426;SDS011;50772;51.482;-0.580;2023-10-13T13:34:11;7.80;;;1.98;;
64426;SDS011;50772;51.482;-0.580;2023-10-13T13:36:38;5.50;;;1.60;;
64426;SDS011;50772;51.482;-0.580;2023-10-13T13:39:03;3.65;;;1.60;;
64426;SDS011;50772;51.482;-0.580;2023-10-13T13:41:31;6.47;;;1.75;;
64426;SDS011;50772;51.482;-0.580;2023-10-13T13:43:58;6.67;;;2.03;;
64426;SDS011;50772;51.482;-0.580;2023-10-13T13:46:38;7.15;;;1.77;;
64426;SDS011;50772;51.482;-0.580;2023-10-13T13:49:06;4.85;;;1.70;;
64426;SDS011;50772;51.482;-0.580;2023-10-13T13:51:42;7.88;;;2.50;;
64426;SDS011;50772;51.482;-0.580;2023-10-13T13:54:09;4.47;;;1.70;;
64426;SDS011;50772;51.482;-0.580;2023-10-13T13:56:34;5.97;;;1.73;;
64426;SDS011;50772;51.482;-0.580;2023-10-13T13:59:06;5.05;;;1.92;;
64426;SDS011;50772;51.482;-0.580;2023-10-13T14:01:33;2.40;;;1.58;;
64426;SDS011;50772;51.482;-0.580;2023-10-13T14:04:02;5.22;;;1.42;;
64426;SDS011;50772;51.482;-0.580;2023-10-13T14:06:28;4.90;;;1.60;;
64426;SDS011;50772;51.482;-0.580;2023-10-13T14:08:54;5.47;;;1.50;;
64426;SDS011;50772;51.482;-0.580;2023-10-13T14:11:22;5.30;;;1.42;;
64426;SDS011;50772;51.482;-0.580;2023-10-13T14:14:12;4.30;;;2.20;;
64426;SDS011;50772;51.482;-0.580;2023-10-13T14:19:03;5.33;;;1.60;;
64426;SDS011;50772;51.482;-0.580;2023-10-13T14:21:35;1.60;;;0.95;;
64426;SDS011;50772;51.482;-0.580;2023-10-13T14:24:00;9.27;;;1.65;;
64426;SDS011;50772;51.482;-0.580;2023-10-13T14:26:26;2.90;;;1.55;;
64426;SDS011;50772;51.482;-0.580;2023-10-13T14:28:52;2.22;;;1.42;;
64426;SDS011;50772;51.482;-0.580;2023-10-13T14:31:29;6.50;;;1.45;;
64426;SDS011;50772;51.482;-0.580;2023-10-13T14:33:54;4.28;;;1.50;;
64426;SDS011;50772;51.482;-0.580;2023-10-13T14:36:21;2.43;;;1.40;;
64426;SDS011;50772;51.482;-0.580;2023-10-13T14:38:47;5.15;;;1.85;;
64426;SDS011;50772;51.482;-0.580;2023-10-13T14:41:15;3.33;;;1.60;;
64426;SDS011;50772;51.482;-0.580;2023-10-13T14:43:40;8.77;;;2.38;;
64426;SDS011;50772;51.482;-0.580;2023-10-13T14:46:08;6.03;;;1.77;;
64426;SDS011;50772;51.482;-0.580;2023-10-13T14:48:33;6.47;;;1.92;;
64426;SDS011;50772;51.482;-0.580;2023-10-13T14:50:59;4.60;;;1.88;;
64426;SDS011;50772;51.482;-0.580;2023-10-13T14:53:34;8.15;;;1.85;;
64426;SDS011;50772;51.482;-0.580;2023-10-13T14:56:01;2.97;;;1.52;;
64426;SDS011;50772;51.482;-0.580;2023-10-13T14:58:27;9.55;;;2.10;;
64426;SDS011;50772;51.482;-0.580;2023-10-13T15:00:53;3.97;;;1.63;;
64426;SDS011;50772;51.482;-0.580;2023-10-13T15:03:19;3.72;;;1.70;;
64426;SDS011;50772;51.482;-0.580;2023-10-13T15:05:45;4.50;;;1.77;;
